Troy, Ohio
Current Conditions -  °F | °C
As of 8:15 PM on Sunday 23 Nov 2014 (Local Time) from KDAY Reporting Station
Heavy Rain Heavy Rain  
Wind Chill: 13°   Ceiling: 1400
Heat Index: 13°   Visibility: 2.5mi
Dew Point: 12°   Wind: 25mph
Humidity: 93%   Direction: 140°SE
Pressure: 29.42"   Gusts: 31mph
Location:  40.04°N, 84.2°W
Report Text: KDAY 240115Z 14022G27KT 2 1/2SM +RA BR OVC014 13/12 A2942 RMK AO2 PK WND 14030/0102 P0007 T01280117
Loading
Personal Weather Stations






























Interactive Weather Map New forecast layout! Learn more

10-Day Weather Forecast

Advertisements
Track Severe Weather on mobile